McCook, NE

5:22 PM CDT on August 30, 2014 (GMT -0500)
KNEMCCOO2 | Change Station
CLOSE
Current Station
Personal Weather Station
Location: McCook, NE
Elevation: 2609 ft
Nearby Weather Stations

Elev 2609 ft 40.21 °N, 100.64 °W | Updated 5 minutes ago

Clear
Clear
92.1 °F
Feels Like 92 °F
N
6.4
Wind Variable Wind from SSW
Gusts 18.7 mph

Today
High -- | Low -- °F
--% Chance of Precip.
Yesterday
High -- | Low -- °F
Precip. -- in
7:08 AM 8:17 PM
Waxing Crescent, 25% visible
Pressure 29.77 in
Visibility 10.0 miles
Clouds Clear
Heat Index 92 °F
Dew Point 61 °F
Humidity 36%
Rainfall 0.00 in
Snow Depth Not available.
UV 5 out of 12
Pollen 10.10 out of 12
Air Quality Not available.
Flu Activity Not available.
METAR KMCK 302153Z AUTO 21009KT 10SM CLR 33/13 A2984 RMK AO2 SLP079 T03330128

More Conditions Fewer Conditions

Pressure 29.77 in
Visibility 10.0 miles
Clouds Clear
Heat Index 92 °F
Dew Point 61 °F
Humidity 36%
Rainfall 0.00 in
Snow Depth Not available.
UV 5 out of 12
Pollen 10.10 out of 12
Air Quality Not available.
Flu Activity Not available.
METAR KMCK 302153Z AUTO 21009KT 10SM CLR 33/13 A2984 RMK AO2 SLP079 T03330128

More Conditions Fewer Conditions

10-Day Weather Forecast

Almanac

Astronomy

Aug. 30, 2014 Rise Set
Actual Time 7:08 AM CDT 8:17 PM CDT
Civil Twilight 6:40 AM CDT 8:45 PM CDT
Nautical Twilight 6:06 AM CDT 9:18 PM CDT
Astronomical Twilight 5:31 AM CDT 9:53 PM CDT
Moon 11:58 AM CDT 10:52 PM CDT
Length of Visible Light 14h 04m
Length of Day
13h 08m
Tomorrow will be 2m 32s shorter.
Waxing Crescent, 25% of the Moon is Illuminated
Today
Waxing Crescent
Sep 2
First Quarter
Sep 8
Full
Sep 15
Last Quarter
Sep 24
New

Today's Extremes

State Highs State Lows

Community

WunderPhotos

Upload Photos

1,748,657 photos uploaded!

WunderBlogs® & News

Nearby

Snow Depth

Station Depth Elevation
No new snow has been reported.

Earthquake Activity

City Distance Mag. Time & Date
No recent earthquake activity has been reported nearby.
Minimum magnitude displayed is 2.5.

Coastal Water Temperatures

Place Temperature
No Stations Reporting

Nearby Weather Stations